EPZG

Zielona Góra-Babimost Airport

Babimost, Poland
METAR EPZG 221300Z 10003KT 030V150 CAVOK 21/04 Q1016
Observed Flight Rules
Apr-22 @ 13:00 UTC (5 hours ago) Visual Flight Rules
Wind Visibility Clouds
100° at 3 knots 10,000+ meters
  • Clear skies
Temperatures Readings
Current 21°C / 70°F
Dewpoint 4°C / 39°F
Humidity 33%
Altimeter 30" Hg
Pressure 1016 hPa
Elevation 59
METAR EPZG 221300Z 10003KT 030V150 CAVOK 21/04 Q1016
Observed Flight Rules
Apr-22 @ 13:00 UTC
(5 hours ago)
VFR
Wind Visibility
100° at 3 knots 10,000+ meters
Clouds
  • Clear skies
Temperature Dewpoint
21°C / 70°F 4°C / 39°F
Humidity Altimeter Pressure
33% 30" Hg 1016 hPa